sensor_id;sensor_type;location;lat;lon;timestamp;temperature;humidity
4097;DHT22;2062;50.694;7.246;2022-11-02T00:00:47;23.40;36.80
4097;DHT22;2062;50.694;7.246;2022-11-02T00:03:14;23.40;36.80
4097;DHT22;2062;50.694;7.246;2022-11-02T00:05:41;23.50;36.90
4097;DHT22;2062;50.694;7.246;2022-11-02T00:08:07;23.40;36.80
4097;DHT22;2062;50.694;7.246;2022-11-02T00:10:34;23.40;36.90
4097;DHT22;2062;50.694;7.246;2022-11-02T00:13:01;23.40;36.90
4097;DHT22;2062;50.694;7.246;2022-11-02T00:15:31;23.40;36.80
4097;DHT22;2062;50.694;7.246;2022-11-02T00:18:01;23.40;36.90
4097;DHT22;2062;50.694;7.246;2022-11-02T00:20:29;23.40;36.90
4097;DHT22;2062;50.694;7.246;2022-11-02T00:22:58;23.40;36.90
4097;DHT22;2062;50.694;7.246;2022-11-02T00:25:27;23.40;36.90
4097;DHT22;2062;50.694;7.246;2022-11-02T00:27:54;23.40;36.90
4097;DHT22;2062;50.694;7.246;2022-11-02T00:30:21;23.40;36.90
4097;DHT22;2062;50.694;7.246;2022-11-02T00:32:48;23.40;36.90
4097;DHT22;2062;50.694;7.246;2022-11-02T00:35:16;23.40;36.90
4097;DHT22;2062;50.694;7.246;2022-11-02T00:37:43;23.40;37.00
4097;DHT22;2062;50.694;7.246;2022-11-02T00:40:10;23.40;37.00
4097;DHT22;2062;50.694;7.246;2022-11-02T00:42:37;23.40;37.10
4097;DHT22;2062;50.694;7.246;2022-11-02T00:45:05;23.40;37.30
4097;DHT22;2062;50.694;7.246;2022-11-02T00:47:33;23.40;37.50
4097;DHT22;2062;50.694;7.246;2022-11-02T00:49:59;23.40;37.60
4097;DHT22;2062;50.694;7.246;2022-11-02T00:52:28;23.50;37.70
4097;DHT22;2062;50.694;7.246;2022-11-02T00:54:54;23.50;37.80
4097;DHT22;2062;50.694;7.246;2022-11-02T00:57:21;23.50;37.80
4097;DHT22;2062;50.694;7.246;2022-11-02T00:59:48;23.40;37.70
4097;DHT22;2062;50.694;7.246;2022-11-02T01:02:15;23.50;37.80
4097;DHT22;2062;50.694;7.246;2022-11-02T01:04:42;23.50;37.90
4097;DHT22;2062;50.694;7.246;2022-11-02T01:07:08;23.50;37.90
4097;DHT22;2062;50.694;7.246;2022-11-02T01:09:36;23.40;37.80
4097;DHT22;2062;50.694;7.246;2022-11-02T01:12:04;23.50;38.00
4097;DHT22;2062;50.694;7.246;2022-11-02T01:14:31;23.50;37.90
4097;DHT22;2062;50.694;7.246;2022-11-02T01:16:58;23.50;37.90
4097;DHT22;2062;50.694;7.246;2022-11-02T01:19:25;23.40;37.80
4097;DHT22;2062;50.694;7.246;2022-11-02T01:21:52;23.50;38.00
4097;DHT22;2062;50.694;7.246;2022-11-02T01:24:19;23.50;38.00
4097;DHT22;2062;50.694;7.246;2022-11-02T01:26:50;23.40;37.90
4097;DHT22;2062;50.694;7.246;2022-11-02T01:29:17;23.50;38.00
4097;DHT22;2062;50.694;7.246;2022-11-02T01:31:44;23.40;37.90
4097;DHT22;2062;50.694;7.246;2022-11-02T01:34:11;23.50;38.00
4097;DHT22;2062;50.694;7.246;2022-11-02T01:36:37;23.50;38.00
4097;DHT22;2062;50.694;7.246;2022-11-02T01:39:04;23.50;38.00
4097;DHT22;2062;50.694;7.246;2022-11-02T01:41:31;23.40;37.90
4097;DHT22;2062;50.694;7.246;2022-11-02T01:44:02;23.50;38.00
4097;DHT22;2062;50.694;7.246;2022-11-02T01:46:35;23.50;38.00
4097;DHT22;2062;50.694;7.246;2022-11-02T01:49:06;23.50;38.00
4097;DHT22;2062;50.694;7.246;2022-11-02T01:51:36;23.50;38.00
4097;DHT22;2062;50.694;7.246;2022-11-02T01:54:06;23.50;38.00
4097;DHT22;2062;50.694;7.246;2022-11-02T01:56:36;23.50;38.00
4097;DHT22;2062;50.694;7.246;2022-11-02T01:59:08;23.40;37.90
4097;DHT22;2062;50.694;7.246;2022-11-02T02:01:36;23.50;38.00
4097;DHT22;2062;50.694;7.246;2022-11-02T02:04:04;23.50;38.00
4097;DHT22;2062;50.694;7.246;2022-11-02T02:06:31;23.40;37.90
4097;DHT22;2062;50.694;7.246;2022-11-02T02:09:02;23.40;38.00
4097;DHT22;2062;50.694;7.246;2022-11-02T02:11:31;23.40;37.90
4097;DHT22;2062;50.694;7.246;2022-11-02T02:14:01;23.50;38.00
4097;DHT22;2062;50.694;7.246;2022-11-02T02:16:53;23.40;37.90
4097;DHT22;2062;50.694;7.246;2022-11-02T02:19:33;23.50;38.00
4097;DHT22;2062;50.694;7.246;2022-11-02T02:22:21;23.50;38.00
4097;DHT22;2062;50.694;7.246;2022-11-02T02:24:56;23.40;38.00
4097;DHT22;2062;50.694;7.246;2022-11-02T02:27:30;23.50;38.00
4097;DHT22;2062;50.694;7.246;2022-11-02T02:30:04;23.50;38.00
4097;DHT22;2062;50.694;7.246;2022-11-02T02:32:37;23.40;38.00
4097;DHT22;2062;50.694;7.246;2022-11-02T02:35:19;23.40;38.00
4097;DHT22;2062;50.694;7.246;2022-11-02T02:37:52;23.50;38.00
4097;DHT22;2062;50.694;7.246;2022-11-02T02:40:22;23.40;38.00
4097;DHT22;2062;50.694;7.246;2022-11-02T02:42:53;23.40;38.00
4097;DHT22;2062;50.694;7.246;2022-11-02T02:45:26;23.50;38.10
4097;DHT22;2062;50.694;7.246;2022-11-02T02:48:00;23.40;38.00
4097;DHT22;2062;50.694;7.246;2022-11-02T02:50:31;23.40;38.00
4097;DHT22;2062;50.694;7.246;2022-11-02T02:53:01;23.40;38.00
4097;DHT22;2062;50.694;7.246;2022-11-02T02:55:33;23.50;38.00
4097;DHT22;2062;50.694;7.246;2022-11-02T02:58:02;23.40;38.00
4097;DHT22;2062;50.694;7.246;2022-11-02T03:00:32;23.40;38.00
4097;DHT22;2062;50.694;7.246;2022-11-02T03:03:02;23.40;38.00
4097;DHT22;2062;50.694;7.246;2022-11-02T03:05:32;23.40;38.00
4097;DHT22;2062;50.694;7.246;2022-11-02T03:08:02;23.40;38.00
4097;DHT22;2062;50.694;7.246;2022-11-02T03:10:40;23.40;38.00
4097;DHT22;2062;50.694;7.246;2022-11-02T03:13:22;23.40;38.00
4097;DHT22;2062;50.694;7.246;2022-11-02T03:16:01;23.40;38.00
4097;DHT22;2062;50.694;7.246;2022-11-02T03:18:35;23.40;38.00
4097;DHT22;2062;50.694;7.246;2022-11-02T03:21:09;23.40;38.00
4097;DHT22;2062;50.694;7.246;2022-11-02T03:23:42;23.40;38.00
4097;DHT22;2062;50.694;7.246;2022-11-02T03:26:13;23.40;38.00
4097;DHT22;2062;50.694;7.246;2022-11-02T03:28:54;23.40;38.00
4097;DHT22;2062;50.694;7.246;2022-11-02T03:31:39;23.40;38.00
4097;DHT22;2062;50.694;7.246;2022-11-02T03:34:14;23.40;38.00
4097;DHT22;2062;50.694;7.246;2022-11-02T03:36:45;23.50;38.10
4097;DHT22;2062;50.694;7.246;2022-11-02T03:39:17;23.40;38.00
4097;DHT22;2062;50.694;7.246;2022-11-02T03:41:46;23.40;38.00
4097;DHT22;2062;50.694;7.246;2022-11-02T03:44:19;23.40;38.00
4097;DHT22;2062;50.694;7.246;2022-11-02T03:46:49;23.40;38.00
4097;DHT22;2062;50.694;7.246;2022-11-02T03:49:19;23.40;38.00
4097;DHT22;2062;50.694;7.246;2022-11-02T03:51:48;23.40;38.00
4097;DHT22;2062;50.694;7.246;2022-11-02T03:54:23;23.40;38.00
4097;DHT22;2062;50.694;7.246;2022-11-02T03:56:55;23.40;38.70
4097;DHT22;2062;50.694;7.246;2022-11-02T03:59:22;23.40;38.00
4097;DHT22;2062;50.694;7.246;2022-11-02T04:01:51;23.40;38.00
4097;DHT22;2062;50.694;7.246;2022-11-02T04:04:18;23.40;38.00
4097;DHT22;2062;50.694;7.246;2022-11-02T04:06:47;23.40;38.00
4097;DHT22;2062;50.694;7.246;2022-11-02T04:09:14;23.40;38.00
4097;DHT22;2062;50.694;7.246;2022-11-02T04:11:41;23.40;38.00
4097;DHT22;2062;50.694;7.246;2022-11-02T04:14:25;23.40;38.00
4097;DHT22;2062;50.694;7.246;2022-11-02T04:17:05;23.40;38.00
4097;DHT22;2062;50.694;7.246;2022-11-02T04:19:50;23.40;38.00
4097;DHT22;2062;50.694;7.246;2022-11-02T04:22:17;23.40;38.00
4097;DHT22;2062;50.694;7.246;2022-11-02T04:25:02;23.30;38.00
4097;DHT22;2062;50.694;7.246;2022-11-02T04:27:43;23.40;38.00
4097;DHT22;2062;50.694;7.246;2022-11-02T04:30:11;23.40;38.00
4097;DHT22;2062;50.694;7.246;2022-11-02T04:32:40;23.40;38.00
4097;DHT22;2062;50.694;7.246;2022-11-02T04:35:25;23.40;38.00
4097;DHT22;2062;50.694;7.246;2022-11-02T04:37:52;23.40;38.00
4097;DHT22;2062;50.694;7.246;2022-11-02T04:40:36;23.40;38.00
4097;DHT22;2062;50.694;7.246;2022-11-02T04:43:03;23.30;38.10
4097;DHT22;2062;50.694;7.246;2022-11-02T04:45:30;23.40;38.00
4097;DHT22;2062;50.694;7.246;2022-11-02T04:48:02;23.40;38.00
4097;DHT22;2062;50.694;7.246;2022-11-02T04:50:29;23.40;38.10
4097;DHT22;2062;50.694;7.246;2022-11-02T04:52:57;23.40;38.10
4097;DHT22;2062;50.694;7.246;2022-11-02T04:55:24;23.40;38.00
4097;DHT22;2062;50.694;7.246;2022-11-02T04:57:51;23.40;38.00
4097;DHT22;2062;50.694;7.246;2022-11-02T05:00:19;23.40;38.00
4097;DHT22;2062;50.694;7.246;2022-11-02T05:02:46;23.30;38.20
4097;DHT22;2062;50.694;7.246;2022-11-02T05:05:15;23.40;38.20
4097;DHT22;2062;50.694;7.246;2022-11-02T05:07:42;23.40;38.30
4097;DHT22;2062;50.694;7.246;2022-11-02T05:10:09;23.40;38.30
4097;DHT22;2062;50.694;7.246;2022-11-02T05:12:36;23.40;38.30
4097;DHT22;2062;50.694;7.246;2022-11-02T05:15:04;23.40;38.30
4097;DHT22;2062;50.694;7.246;2022-11-02T05:17:31;23.40;38.40
4097;DHT22;2062;50.694;7.246;2022-11-02T05:19:57;23.40;38.40
4097;DHT22;2062;50.694;7.246;2022-11-02T05:22:26;23.40;38.40
4097;DHT22;2062;50.694;7.246;2022-11-02T05:24:52;23.40;38.40
4097;DHT22;2062;50.694;7.246;2022-11-02T05:27:19;23.40;38.60
4097;DHT22;2062;50.694;7.246;2022-11-02T05:29:46;23.50;39.00
4097;DHT22;2062;50.694;7.246;2022-11-02T05:32:13;23.50;39.00
4097;DHT22;2062;50.694;7.246;2022-11-02T05:34:39;23.50;39.00
4097;DHT22;2062;50.694;7.246;2022-11-02T05:37:06;23.50;38.90
4097;DHT22;2062;50.694;7.246;2022-11-02T05:39:34;23.50;38.90
4097;DHT22;2062;50.694;7.246;2022-11-02T05:42:01;23.50;38.40
4097;DHT22;2062;50.694;7.246;2022-11-02T05:44:28;23.50;38.60
4097;DHT22;2062;50.694;7.246;2022-11-02T05:46:55;23.50;38.60
4097;DHT22;2062;50.694;7.246;2022-11-02T05:49:22;23.50;38.70
4097;DHT22;2062;50.694;7.246;2022-11-02T05:51:49;23.50;38.80
4097;DHT22;2062;50.694;7.246;2022-11-02T05:54:16;23.50;38.80
4097;DHT22;2062;50.694;7.246;2022-11-02T05:56:44;23.50;38.80
4097;DHT22;2062;50.694;7.246;2022-11-02T05:59:11;23.50;38.90
4097;DHT22;2062;50.694;7.246;2022-11-02T06:01:37;23.50;39.50
4097;DHT22;2062;50.694;7.246;2022-11-02T06:04:04;23.50;38.90
4097;DHT22;2062;50.694;7.246;2022-11-02T06:06:31;23.40;38.90
4097;DHT22;2062;50.694;7.246;2022-11-02T06:08:58;23.50;39.10
4097;DHT22;2062;50.694;7.246;2022-11-02T06:11:25;23.50;39.10
4097;DHT22;2062;50.694;7.246;2022-11-02T06:13:53;23.50;39.10
4097;DHT22;2062;50.694;7.246;2022-11-02T06:16:19;23.40;39.00
4097;DHT22;2062;50.694;7.246;2022-11-02T06:18:46;23.50;39.10
4097;DHT22;2062;50.694;7.246;2022-11-02T06:21:13;23.50;39.20
4097;DHT22;2062;50.694;7.246;2022-11-02T06:23:40;23.50;39.20
4097;DHT22;2062;50.694;7.246;2022-11-02T06:26:08;23.50;39.30
4097;DHT22;2062;50.694;7.246;2022-11-02T06:28:35;23.50;39.30
4097;DHT22;2062;50.694;7.246;2022-11-02T06:31:04;23.50;39.30
4097;DHT22;2062;50.694;7.246;2022-11-02T06:33:30;23.40;39.30
4097;DHT22;2062;50.694;7.246;2022-11-02T06:35:58;23.50;39.30
4097;DHT22;2062;50.694;7.246;2022-11-02T06:38:25;23.50;39.30
4097;DHT22;2062;50.694;7.246;2022-11-02T06:40:53;23.50;39.40
4097;DHT22;2062;50.694;7.246;2022-11-02T06:43:20;23.50;39.40
4097;DHT22;2062;50.694;7.246;2022-11-02T06:45:47;23.50;39.40
4097;DHT22;2062;50.694;7.246;2022-11-02T06:48:15;23.50;39.40
4097;DHT22;2062;50.694;7.246;2022-11-02T06:50:42;23.50;39.50
4097;DHT22;2062;50.694;7.246;2022-11-02T06:53:09;23.50;39.50
4097;DHT22;2062;50.694;7.246;2022-11-02T06:55:35;23.40;39.40
4097;DHT22;2062;50.694;7.246;2022-11-02T06:58:02;23.40;39.40
4097;DHT22;2062;50.694;7.246;2022-11-02T07:00:29;23.50;39.50
4097;DHT22;2062;50.694;7.246;2022-11-02T07:02:59;23.40;39.40
4097;DHT22;2062;50.694;7.246;2022-11-02T07:05:28;23.50;39.60
4097;DHT22;2062;50.694;7.246;2022-11-02T07:07:55;23.50;39.60
4097;DHT22;2062;50.694;7.246;2022-11-02T07:10:23;23.50;39.60
4097;DHT22;2062;50.694;7.246;2022-11-02T07:12:51;23.40;39.50
4097;DHT22;2062;50.694;7.246;2022-11-02T07:15:18;23.40;39.50
4097;DHT22;2062;50.694;7.246;2022-11-02T07:17:45;23.40;39.50
4097;DHT22;2062;50.694;7.246;2022-11-02T07:20:12;23.40;39.40
4097;DHT22;2062;50.694;7.246;2022-11-02T07:22:41;23.50;39.60
4097;DHT22;2062;50.694;7.246;2022-11-02T07:25:08;23.40;39.50
4097;DHT22;2062;50.694;7.246;2022-11-02T07:27:37;23.40;39.50
4097;DHT22;2062;50.694;7.246;2022-11-02T07:30:06;23.50;39.60
4097;DHT22;2062;50.694;7.246;2022-11-02T07:32:38;23.40;39.40
4097;DHT22;2062;50.694;7.246;2022-11-02T07:35:07;23.50;39.60
4097;DHT22;2062;50.694;7.246;2022-11-02T07:37:34;23.50;39.50
4097;DHT22;2062;50.694;7.246;2022-11-02T07:40:03;23.50;39.50
4097;DHT22;2062;50.694;7.246;2022-11-02T07:42:30;23.50;39.50
4097;DHT22;2062;50.694;7.246;2022-11-02T07:44:57;23.50;39.40
4097;DHT22;2062;50.694;7.246;2022-11-02T07:47:24;23.50;39.40
4097;DHT22;2062;50.694;7.246;2022-11-02T07:49:51;23.50;39.40
4097;DHT22;2062;50.694;7.246;2022-11-02T07:52:18;23.50;39.40
4097;DHT22;2062;50.694;7.246;2022-11-02T07:54:44;23.50;39.40
4097;DHT22;2062;50.694;7.246;2022-11-02T07:57:13;23.50;39.40
4097;DHT22;2062;50.694;7.246;2022-11-02T07:59:39;23.50;39.40
4097;DHT22;2062;50.694;7.246;2022-11-02T08:02:09;23.50;39.40
4097;DHT22;2062;50.694;7.246;2022-11-02T08:04:37;23.50;39.40
4097;DHT22;2062;50.694;7.246;2022-11-02T08:07:04;23.40;39.30
4097;DHT22;2062;50.694;7.246;2022-11-02T08:09:31;23.40;39.30
4097;DHT22;2062;50.694;7.246;2022-11-02T08:11:58;23.50;39.60
4097;DHT22;2062;50.694;7.246;2022-11-02T08:14:26;23.50;39.40
4097;DHT22;2062;50.694;7.246;2022-11-02T08:16:53;23.50;40.10
4097;DHT22;2062;50.694;7.246;2022-11-02T08:19:20;23.50;39.40
4097;DHT22;2062;50.694;7.246;2022-11-02T08:21:46;23.50;39.40
4097;DHT22;2062;50.694;7.246;2022-11-02T08:24:13;23.50;39.40
4097;DHT22;2062;50.694;7.246;2022-11-02T08:26:40;23.50;39.40
4097;DHT22;2062;50.694;7.246;2022-11-02T08:29:07;23.50;39.40
4097;DHT22;2062;50.694;7.246;2022-11-02T08:31:35;23.50;39.40
4097;DHT22;2062;50.694;7.246;2022-11-02T08:34:02;23.50;39.30
4097;DHT22;2062;50.694;7.246;2022-11-02T08:36:28;23.50;39.40
4097;DHT22;2062;50.694;7.246;2022-11-02T08:38:55;23.50;39.30
4097;DHT22;2062;50.694;7.246;2022-11-02T08:41:22;23.50;39.40
4097;DHT22;2062;50.694;7.246;2022-11-02T08:43:49;23.50;39.30
4097;DHT22;2062;50.694;7.246;2022-11-02T08:46:15;23.60;39.30
4097;DHT22;2062;50.694;7.246;2022-11-02T08:48:44;23.60;39.30
4097;DHT22;2062;50.694;7.246;2022-11-02T08:51:10;23.60;39.30
4097;DHT22;2062;50.694;7.246;2022-11-02T08:53:37;23.60;39.30
4097;DHT22;2062;50.694;7.246;2022-11-02T08:56:04;23.60;39.30
4097;DHT22;2062;50.694;7.246;2022-11-02T08:58:31;23.60;39.30
4097;DHT22;2062;50.694;7.246;2022-11-02T09:00:58;23.60;39.20
4097;DHT22;2062;50.694;7.246;2022-11-02T09:03:25;23.60;39.20
4097;DHT22;2062;50.694;7.246;2022-11-02T09:05:57;23.60;39.20
4097;DHT22;2062;50.694;7.246;2022-11-02T09:08:24;23.60;39.10
4097;DHT22;2062;50.694;7.246;2022-11-02T09:10:52;23.60;39.10
4097;DHT22;2062;50.694;7.246;2022-11-02T09:13:20;23.60;39.80
4097;DHT22;2062;50.694;7.246;2022-11-02T09:15:51;23.60;39.10
4097;DHT22;2062;50.694;7.246;2022-11-02T09:18:18;23.60;39.10
4097;DHT22;2062;50.694;7.246;2022-11-02T09:20:45;23.60;39.10
4097;DHT22;2062;50.694;7.246;2022-11-02T09:23:15;23.60;39.00
4097;DHT22;2062;50.694;7.246;2022-11-02T09:25:41;23.60;39.10
4097;DHT22;2062;50.694;7.246;2022-11-02T09:28:08;23.60;39.00
4097;DHT22;2062;50.694;7.246;2022-11-02T09:30:35;23.60;39.00
4097;DHT22;2062;50.694;7.246;2022-11-02T09:33:03;23.60;39.00
4097;DHT22;2062;50.694;7.246;2022-11-02T09:35:32;23.60;39.00
4097;DHT22;2062;50.694;7.246;2022-11-02T09:37:59;23.60;39.00
4097;DHT22;2062;50.694;7.246;2022-11-02T09:40:34;23.60;38.90
4097;DHT22;2062;50.694;7.246;2022-11-02T09:43:07;23.60;38.90
4097;DHT22;2062;50.694;7.246;2022-11-02T09:45:41;23.60;38.90
4097;DHT22;2062;50.694;7.246;2022-11-02T09:48:16;23.60;38.90
4097;DHT22;2062;50.694;7.246;2022-11-02T09:50:48;23.60;38.90
4097;DHT22;2062;50.694;7.246;2022-11-02T09:53:18;23.60;38.90
4097;DHT22;2062;50.694;7.246;2022-11-02T09:55:51;23.60;38.80
4097;DHT22;2062;50.694;7.246;2022-11-02T09:58:22;23.60;38.40
4097;DHT22;2062;50.694;7.246;2022-11-02T10:00:56;23.60;37.70
4097;DHT22;2062;50.694;7.246;2022-11-02T10:03:32;23.60;37.60
4097;DHT22;2062;50.694;7.246;2022-11-02T10:06:10;23.60;38.00
4097;DHT22;2062;50.694;7.246;2022-11-02T10:08:44;23.60;38.20
4097;DHT22;2062;50.694;7.246;2022-11-02T10:11:24;23.60;38.30
4097;DHT22;2062;50.694;7.246;2022-11-02T10:13:59;23.60;38.40
4097;DHT22;2062;50.694;7.246;2022-11-02T10:16:32;23.60;38.30
4097;DHT22;2062;50.694;7.246;2022-11-02T10:19:02;23.60;38.40
4097;DHT22;2062;50.694;7.246;2022-11-02T10:21:32;23.60;38.40
4097;DHT22;2062;50.694;7.246;2022-11-02T10:24:06;23.60;38.40
4097;DHT22;2062;50.694;7.246;2022-11-02T10:26:36;23.60;39.10
4097;DHT22;2062;50.694;7.246;2022-11-02T10:29:13;23.60;38.50
4097;DHT22;2062;50.694;7.246;2022-11-02T10:31:41;23.60;38.40
4097;DHT22;2062;50.694;7.246;2022-11-02T10:34:18;23.60;38.40
4097;DHT22;2062;50.694;7.246;2022-11-02T10:36:51;23.60;38.40
4097;DHT22;2062;50.694;7.246;2022-11-02T10:39:24;23.60;38.40
4097;DHT22;2062;50.694;7.246;2022-11-02T10:42:07;23.60;38.40
4097;DHT22;2062;50.694;7.246;2022-11-02T10:44:52;23.60;38.40
4097;DHT22;2062;50.694;7.246;2022-11-02T10:47:26;23.60;38.40
4097;DHT22;2062;50.694;7.246;2022-11-02T10:50:11;23.60;38.40
4097;DHT22;2062;50.694;7.246;2022-11-02T10:52:40;23.60;38.40
4097;DHT22;2062;50.694;7.246;2022-11-02T10:55:16;23.60;38.50
4097;DHT22;2062;50.694;7.246;2022-11-02T10:57:46;23.60;38.50
4097;DHT22;2062;50.694;7.246;2022-11-02T11:00:29;23.60;38.50
4097;DHT22;2062;50.694;7.246;2022-11-02T11:03:07;23.60;38.50
4097;DHT22;2062;50.694;7.246;2022-11-02T11:05:37;23.60;38.50
4097;DHT22;2062;50.694;7.246;2022-11-02T11:08:04;23.60;38.50
4097;DHT22;2062;50.694;7.246;2022-11-02T11:10:35;23.60;38.50
4097;DHT22;2062;50.694;7.246;2022-11-02T11:13:04;23.60;38.50
4097;DHT22;2062;50.694;7.246;2022-11-02T11:15:32;23.60;38.50
4097;DHT22;2062;50.694;7.246;2022-11-02T11:18:09;23.60;38.60
4097;DHT22;2062;50.694;7.246;2022-11-02T11:20:39;23.60;38.50
4097;DHT22;2062;50.694;7.246;2022-11-02T11:23:08;23.60;38.60
4097;DHT22;2062;50.694;7.246;2022-11-02T11:25:41;23.60;38.60
4097;DHT22;2062;50.694;7.246;2022-11-02T11:28:22;23.60;38.60
4097;DHT22;2062;50.694;7.246;2022-11-02T11:31:01;23.60;38.60
4097;DHT22;2062;50.694;7.246;2022-11-02T11:33:29;23.60;38.60
4097;DHT22;2062;50.694;7.246;2022-11-02T11:35:58;23.60;38.60
4097;DHT22;2062;50.694;7.246;2022-11-02T11:38:25;23.60;38.60
4097;DHT22;2062;50.694;7.246;2022-11-02T11:40:54;23.60;38.60
4097;DHT22;2062;50.694;7.246;2022-11-02T11:43:25;23.60;38.60
4097;DHT22;2062;50.694;7.246;2022-11-02T11:45:54;23.60;38.60
4097;DHT22;2062;50.694;7.246;2022-11-02T11:48:26;23.60;38.60
4097;DHT22;2062;50.694;7.246;2022-11-02T11:50:55;23.60;38.60
4097;DHT22;2062;50.694;7.246;2022-11-02T11:53:24;23.60;38.60
4097;DHT22;2062;50.694;7.246;2022-11-02T11:55:52;23.60;38.60
4097;DHT22;2062;50.694;7.246;2022-11-02T11:58:21;23.60;38.60
4097;DHT22;2062;50.694;7.246;2022-11-02T12:01:04;23.60;38.60
4097;DHT22;2062;50.694;7.246;2022-11-02T12:03:32;23.60;38.60
4097;DHT22;2062;50.694;7.246;2022-11-02T12:06:22;23.60;38.60
4097;DHT22;2062;50.694;7.246;2022-11-02T12:08:53;23.70;38.70
4097;DHT22;2062;50.694;7.246;2022-11-02T12:11:32;23.60;38.60
4097;DHT22;2062;50.694;7.246;2022-11-02T12:14:12;23.60;38.60
4097;DHT22;2062;50.694;7.246;2022-11-02T12:17:00;23.60;38.60
4097;DHT22;2062;50.694;7.246;2022-11-02T12:19:36;23.70;38.80
4097;DHT22;2062;50.694;7.246;2022-11-02T12:22:14;23.60;38.70
4097;DHT22;2062;50.694;7.246;2022-11-02T12:25:01;23.70;38.80
4097;DHT22;2062;50.694;7.246;2022-11-02T12:27:36;23.60;38.70
4097;DHT22;2062;50.694;7.246;2022-11-02T12:30:15;23.70;38.80
4097;DHT22;2062;50.694;7.246;2022-11-02T12:33:13;23.80;38.80
4097;DHT22;2062;50.694;7.246;2022-11-02T12:38:51;23.70;38.80
4097;DHT22;2062;50.694;7.246;2022-11-02T12:41:54;23.60;38.70
4097;DHT22;2062;50.694;7.246;2022-11-02T12:44:37;23.70;38.80
4097;DHT22;2062;50.694;7.246;2022-11-02T12:47:24;23.70;38.80
4097;DHT22;2062;50.694;7.246;2022-11-02T12:50:02;23.70;38.90
4097;DHT22;2062;50.694;7.246;2022-11-02T12:52:44;23.70;38.80
4097;DHT22;2062;50.694;7.246;2022-11-02T12:55:16;23.60;38.80
4097;DHT22;2062;50.694;7.246;2022-11-02T12:57:43;23.70;38.80
4097;DHT22;2062;50.694;7.246;2022-11-02T13:00:16;23.70;38.90
4097;DHT22;2062;50.694;7.246;2022-11-02T13:02:52;23.70;38.90
4097;DHT22;2062;50.694;7.246;2022-11-02T13:05:25;23.60;38.80
4097;DHT22;2062;50.694;7.246;2022-11-02T13:08:01;23.70;38.90
4097;DHT22;2062;50.694;7.246;2022-11-02T13:10:32;23.60;38.80
4097;DHT22;2062;50.694;7.246;2022-11-02T13:13:02;23.70;38.90
4097;DHT22;2062;50.694;7.246;2022-11-02T13:15:33;23.70;38.90
4097;DHT22;2062;50.694;7.246;2022-11-02T13:18:04;23.70;38.90
4097;DHT22;2062;50.694;7.246;2022-11-02T13:20:39;23.70;38.90
4097;DHT22;2062;50.694;7.246;2022-11-02T13:23:18;23.70;38.90
4097;DHT22;2062;50.694;7.246;2022-11-02T13:25:51;23.60;38.90
4097;DHT22;2062;50.694;7.246;2022-11-02T13:28:28;23.70;38.90
4097;DHT22;2062;50.694;7.246;2022-11-02T13:30:57;23.70;38.90
4097;DHT22;2062;50.694;7.246;2022-11-02T13:33:28;23.70;38.90
4097;DHT22;2062;50.694;7.246;2022-11-02T13:35:57;23.70;38.90
4097;DHT22;2062;50.694;7.246;2022-11-02T13:38:29;23.70;38.90
4097;DHT22;2062;50.694;7.246;2022-11-02T13:41:17;23.60;38.80
4097;DHT22;2062;50.694;7.246;2022-11-02T13:44:13;23.70;38.90
4097;DHT22;2062;50.694;7.246;2022-11-02T13:46:57;23.70;38.90
4097;DHT22;2062;50.694;7.246;2022-11-02T13:49:30;23.70;38.90
4097;DHT22;2062;50.694;7.246;2022-11-02T13:52:01;23.70;39.00
4097;DHT22;2062;50.694;7.246;2022-11-02T13:54:31;23.70;39.00
4097;DHT22;2062;50.694;7.246;2022-11-02T13:56:59;23.60;38.50
4097;DHT22;2062;50.694;7.246;2022-11-02T13:59:29;23.70;38.30
4097;DHT22;2062;50.694;7.246;2022-11-02T14:01:58;23.70;37.60
4097;DHT22;2062;50.694;7.246;2022-11-02T14:04:27;23.60;36.40
4097;DHT22;2062;50.694;7.246;2022-11-02T14:06:59;23.60;36.00
4097;DHT22;2062;50.694;7.246;2022-11-02T14:09:31;23.60;35.80
4097;DHT22;2062;50.694;7.246;2022-11-02T14:12:25;23.50;35.30
4097;DHT22;2062;50.694;7.246;2022-11-02T14:18:01;23.50;34.40
4097;DHT22;2062;50.694;7.246;2022-11-02T14:20:34;23.50;34.90
4097;DHT22;2062;50.694;7.246;2022-11-02T14:23:32;23.50;35.00
4097;DHT22;2062;50.694;7.246;2022-11-02T14:26:00;23.50;33.90
4097;DHT22;2062;50.694;7.246;2022-11-02T14:28:39;23.50;34.00
4097;DHT22;2062;50.694;7.246;2022-11-02T14:31:35;23.50;34.20
4097;DHT22;2062;50.694;7.246;2022-11-02T14:34:26;23.40;34.80
4097;DHT22;2062;50.694;7.246;2022-11-02T14:37:13;23.50;35.30
4097;DHT22;2062;50.694;7.246;2022-11-02T14:39:51;23.50;35.50
4097;DHT22;2062;50.694;7.246;2022-11-02T14:42:32;23.50;35.80
4097;DHT22;2062;50.694;7.246;2022-11-02T14:45:21;23.50;35.80
4097;DHT22;2062;50.694;7.246;2022-11-02T14:47:56;23.50;35.70
4097;DHT22;2062;50.694;7.246;2022-11-02T14:50:25;23.50;35.00
4097;DHT22;2062;50.694;7.246;2022-11-02T14:52:56;23.50;35.50
4097;DHT22;2062;50.694;7.246;2022-11-02T14:55:27;23.50;36.40
4097;DHT22;2062;50.694;7.246;2022-11-02T14:57:58;23.50;35.80
4097;DHT22;2062;50.694;7.246;2022-11-02T15:00:32;23.50;35.90
4097;DHT22;2062;50.694;7.246;2022-11-02T15:03:01;23.50;35.90
4097;DHT22;2062;50.694;7.246;2022-11-02T15:05:32;23.50;35.90
4097;DHT22;2062;50.694;7.246;2022-11-02T15:08:01;23.50;36.00
4097;DHT22;2062;50.694;7.246;2022-11-02T15:10:39;23.50;36.00
4097;DHT22;2062;50.694;7.246;2022-11-02T15:13:32;23.50;36.00
4097;DHT22;2062;50.694;7.246;2022-11-02T15:16:22;23.50;36.00
4097;DHT22;2062;50.694;7.246;2022-11-02T15:18:49;23.50;36.00
4097;DHT22;2062;50.694;7.246;2022-11-02T15:21:28;23.50;36.10
4097;DHT22;2062;50.694;7.246;2022-11-02T15:24:10;23.50;36.10
4097;DHT22;2062;50.694;7.246;2022-11-02T15:26:49;23.50;36.20
4097;DHT22;2062;50.694;7.246;2022-11-02T15:29:30;23.60;36.20
4097;DHT22;2062;50.694;7.246;2022-11-02T15:32:02;23.60;36.20
4097;DHT22;2062;50.694;7.246;2022-11-02T15:34:34;23.60;36.20
4097;DHT22;2062;50.694;7.246;2022-11-02T15:37:02;23.60;36.30
4097;DHT22;2062;50.694;7.246;2022-11-02T15:39:30;23.50;36.30
4097;DHT22;2062;50.694;7.246;2022-11-02T15:42:03;23.50;36.40
4097;DHT22;2062;50.694;7.246;2022-11-02T15:47:37;23.60;36.40
4097;DHT22;2062;50.694;7.246;2022-11-02T15:50:28;23.50;36.40
4097;DHT22;2062;50.694;7.246;2022-11-02T15:53:08;23.60;36.40
4097;DHT22;2062;50.694;7.246;2022-11-02T15:55:44;23.50;36.50
4097;DHT22;2062;50.694;7.246;2022-11-02T15:58:24;23.50;36.40
4097;DHT22;2062;50.694;7.246;2022-11-02T16:01:17;23.50;36.50
4097;DHT22;2062;50.694;7.246;2022-11-02T16:03:46;23.50;36.60
4097;DHT22;2062;50.694;7.246;2022-11-02T16:06:14;23.50;36.70
4097;DHT22;2062;50.694;7.246;2022-11-02T16:08:48;23.50;36.80
4097;DHT22;2062;50.694;7.246;2022-11-02T16:11:17;23.50;37.00
4097;DHT22;2062;50.694;7.246;2022-11-02T16:13:46;23.60;37.00
4097;DHT22;2062;50.694;7.246;2022-11-02T16:16:15;23.60;37.10
4097;DHT22;2062;50.694;7.246;2022-11-02T16:18:43;23.60;37.10
4097;DHT22;2062;50.694;7.246;2022-11-02T16:21:16;23.60;37.10
4097;DHT22;2062;50.694;7.246;2022-11-02T16:23:46;23.60;37.10
4097;DHT22;2062;50.694;7.246;2022-11-02T16:26:15;23.50;37.10
4097;DHT22;2062;50.694;7.246;2022-11-02T16:28:52;23.60;37.10
4097;DHT22;2062;50.694;7.246;2022-11-02T16:31:21;23.60;37.10
4097;DHT22;2062;50.694;7.246;2022-11-02T16:33:51;23.60;37.00
4097;DHT22;2062;50.694;7.246;2022-11-02T16:36:20;23.50;37.10
4097;DHT22;2062;50.694;7.246;2022-11-02T16:38:55;23.60;37.10